Time;durP1;ratioP1;P1;durP2;ratioP2;P2;SDS_P1;SDS_P2;PMS_P1;PMS_P2;Temp;Humidity;BMP_temperature;BMP_pressure;BME280_temperature;BME280_humidity;BME280_pressure;Samples;Min_cycle;Max_cycle;Signal;HPM_P1;HPM_P2
2021/06/15 00:01:17;;;;;;;21.02;11.75;;;18.50;99.90;;;;;;6248175;23;20020;-84
2021/06/15 00:03:43;;;;;;;26.65;14.85;;;18.60;99.90;;;;;;6248333;23;20070;-83
2021/06/15 00:06:11;;;;;;;22.52;12.45;;;18.60;99.90;;;;;;6224223;23;20476;-85
2021/06/15 00:08:37;;;;;;;22.85;12.98;;;18.50;99.90;;;;;;6226590;23;20024;-84
2021/06/15 00:11:04;;;;;;;22.75;12.32;;;18.50;99.90;;;;;;6227425;23;20074;-85
2021/06/15 00:13:33;;;;;;;19.90;11.75;;;18.50;99.90;;;;;;6227956;23;20016;-85
2021/06/15 00:16:00;;;;;;;23.23;13.00;;;18.50;99.90;;;;;;6227319;23;20054;-84
2021/06/15 00:18:27;;;;;;;23.80;14.20;;;18.40;99.90;;;;;;6226964;23;20547;-85
2021/06/15 00:20:54;;;;;;;22.77;14.30;;;18.30;99.90;;;;;;6228642;23;20066;-86
2021/06/15 00:23:21;;;;;;;21.33;13.20;;;18.30;99.90;;;;;;6228356;23;20024;-83
2021/06/15 00:25:48;;;;;;;23.02;12.48;;;18.30;99.90;;;;;;6261338;23;20082;-83
2021/06/15 00:28:15;;;;;;;21.65;13.13;;;18.40;99.90;;;;;;6254336;23;20017;-81
2021/06/15 00:30:43;;;;;;;22.08;13.93;;;18.40;99.90;;;;;;6226930;23;20123;-85
2021/06/15 00:33:10;;;;;;;27.05;15.45;;;18.30;99.90;;;;;;6228231;23;20043;-83
2021/06/15 00:35:37;;;;;;;23.52;14.68;;;18.20;99.90;;;;;;6226738;23;20028;-82
2021/06/15 00:38:04;;;;;;;23.45;12.65;;;18.20;99.90;;;;;;6229374;23;20024;-85
2021/06/15 00:40:32;;;;;;;22.73;14.23;;;18.10;99.90;;;;;;6229373;23;20020;-82
2021/06/15 00:42:58;;;;;;;25.40;14.55;;;18.10;99.90;;;;;;6235233;23;20020;-84
2021/06/15 00:45:27;;;;;;;23.23;14.00;;;18.10;99.90;;;;;;6230770;23;20514;-83
2021/06/15 00:47:56;;;;;;;23.97;14.20;;;18.10;99.90;;;;;;6232943;23;20016;-83
2021/06/15 00:50:25;;;;;;;27.70;14.00;;;18.20;99.90;;;;;;6230821;23;20027;-86
2021/06/15 00:52:53;;;;;;;25.67;13.93;;;18.00;99.90;;;;;;6232761;23;20287;-85
2021/06/15 00:55:21;;;;;;;25.52;14.00;;;18.00;99.90;;;;;;6232320;23;20024;-85
2021/06/15 00:57:47;;;;;;;18.67;12.32;;;17.90;99.90;;;;;;6234777;23;20012;-82
2021/06/15 01:00:15;;;;;;;22.75;13.00;;;17.80;99.90;;;;;;6258926;23;20045;-84
2021/06/15 01:02:43;;;;;;;21.00;11.85;;;17.80;99.90;;;;;;6243833;23;20031;-81
2021/06/15 01:05:14;;;;;;;22.35;13.48;;;17.80;99.90;;;;;;6234545;23;20024;-86
2021/06/15 01:07:53;;;;;;;24.73;15.45;;;17.70;99.90;;;;;;6228904;23;20022;-84
2021/06/15 01:10:41;;;;;;;28.67;16.75;;;17.60;99.90;;;;;;6230940;23;20046;-84
2021/06/15 01:13:19;;;;;;;31.48;18.50;;;17.40;99.90;;;;;;6230068;23;20020;-86
2021/06/15 01:15:56;;;;;;;30.52;18.13;;;17.20;99.90;;;;;;6233270;23;20020;-84
2021/06/15 01:18:25;;;;;;;29.50;19.02;;;17.20;99.90;;;;;;6234822;23;20023;-82
2021/06/15 01:20:56;;;;;;;29.15;17.27;;;17.10;99.90;;;;;;6233974;23;20024;-84
2021/06/15 01:23:41;;;;;;;26.42;16.08;;;17.10;99.90;;;;;;6232883;23;20016;-85
2021/06/15 01:26:36;;;;;;;33.25;17.15;;;17.10;99.90;;;;;;6233791;23;20028;-84
2021/06/15 01:29:08;;;;;;;27.58;17.30;;;17.10;99.90;;;;;;6255657;23;20038;-85
2021/06/15 01:31:39;;;;;;;28.15;15.55;;;17.10;99.90;;;;;;6230344;23;20070;-84
2021/06/15 01:34:09;;;;;;;28.73;15.85;;;17.20;99.90;;;;;;6254785;23;20027;-84
2021/06/15 01:36:38;;;;;;;28.50;16.92;;;17.20;99.90;;;;;;6232337;23;20070;-83
2021/06/15 01:39:10;;;;;;;22.58;13.25;;;17.20;99.90;;;;;;6229876;23;20016;-81
2021/06/15 01:41:42;;;;;;;23.83;13.23;;;17.20;99.90;;;;;;6233398;23;20109;-82
2021/06/15 01:44:13;;;;;;;21.75;12.98;;;17.20;99.90;;;;;;6260341;23;20090;-81
2021/06/15 01:46:46;;;;;;;21.63;12.63;;;17.20;99.90;;;;;;6234864;23;20020;-83
2021/06/15 01:49:17;;;;;;;19.00;12.63;;;17.20;99.90;;;;;;6234201;23;20047;-79
2021/06/15 01:51:45;;;;;;;25.02;14.98;;;17.20;99.90;;;;;;6244860;23;20016;-82
2021/06/15 01:54:16;;;;;;;27.23;16.95;;;17.20;99.90;;;;;;6234551;23;20055;-83
2021/06/15 01:56:43;;;;;;;23.70;14.40;;;17.10;99.90;;;;;;6233815;23;20050;-83
2021/06/15 01:59:13;;;;;;;30.60;16.77;;;16.90;99.90;;;;;;6228151;23;20039;-85
2021/06/15 02:01:44;;;;;;;23.05;14.43;;;16.90;99.90;;;;;;6235913;23;20020;-84
2021/06/15 02:04:11;;;;;;;21.55;13.25;;;16.90;99.90;;;;;;6261454;23;20020;-84
2021/06/15 02:06:43;;;;;;;23.30;13.25;;;16.90;99.90;;;;;;6237993;23;20198;-81
2021/06/15 02:09:12;;;;;;;27.52;15.02;;;17.00;99.90;;;;;;6238331;23;20046;-85
2021/06/15 02:11:40;;;;;;;29.13;19.63;;;16.90;99.90;;;;;;6236588;23;20016;-82
2021/06/15 02:14:19;;;;;;;33.30;20.73;;;16.60;99.90;;;;;;6239271;23;20020;-82
2021/06/15 02:16:50;;;;;;;36.33;20.77;;;16.40;99.90;;;;;;6239123;23;20020;-83
2021/06/15 02:19:20;;;;;;;36.33;22.33;;;16.30;99.90;;;;;;6240186;23;20145;-82
2021/06/15 02:21:49;;;;;;;40.63;22.27;;;16.10;99.90;;;;;;6242397;23;20000;-82
2021/06/15 02:24:19;;;;;;;35.13;21.70;;;16.00;99.90;;;;;;6242494;23;20042;-81
2021/06/15 02:26:48;;;;;;;34.85;20.55;;;16.00;99.90;;;;;;6243470;23;20020;-82
2021/06/15 02:29:15;;;;;;;28.38;18.55;;;15.90;99.90;;;;;;6243086;23;20268;-80
2021/06/15 02:31:48;;;;;;;29.90;18.25;;;15.90;99.90;;;;;;6242718;23;20015;-79
2021/06/15 02:34:20;;;;;;;29.67;18.15;;;15.90;99.90;;;;;;6240514;23;20015;-81
2021/06/15 02:36:48;;;;;;;30.77;17.83;;;15.90;99.90;;;;;;6241132;23;20461;-81
2021/06/15 02:39:18;;;;;;;29.52;17.02;;;15.90;99.90;;;;;;6242448;23;20252;-80
2021/06/15 02:41:45;;;;;;;26.38;15.82;;;15.80;99.90;;;;;;6240526;23;20004;-82
2021/06/15 02:44:21;;;;;;;28.60;17.40;;;15.90;99.90;;;;;;6239661;23;20024;-84
2021/06/15 02:46:50;;;;;;;32.47;18.73;;;15.90;99.90;;;;;;6238615;23;20031;-81
2021/06/15 02:49:20;;;;;;;34.05;19.20;;;15.80;99.90;;;;;;6241193;23;20023;-81
2021/06/15 02:51:54;;;;;;;34.67;20.02;;;15.80;99.90;;;;;;6240656;23;20008;-82
2021/06/15 02:54:26;;;;;;;33.03;19.92;;;15.90;99.90;;;;;;6239551;23;20051;-84
2021/06/15 02:56:54;;;;;;;34.38;20.77;;;17.30;99.90;;;;;;6238295;23;20066;-82
2021/06/15 02:59:21;;;;;;;35.67;20.77;;;15.80;99.90;;;;;;6244029;22;20039;-81
2021/06/15 03:01:49;;;;;;;33.95;20.58;;;15.70;99.90;;;;;;6263603;23;20012;-80
2021/06/15 03:04:18;;;;;;;33.70;20.20;;;15.80;99.90;;;;;;6242912;23;20500;-80
2021/06/15 03:06:45;;;;;;;30.80;18.88;;;15.80;99.90;;;;;;6242428;22;20016;-81
2021/06/15 03:09:13;;;;;;;34.05;19.08;;;15.70;99.90;;;;;;6243704;23;20012;-81
2021/06/15 03:11:42;;;;;;;29.90;18.55;;;15.70;99.90;;;;;;6239495;23;20484;-80
2021/06/15 03:14:13;;;;;;;29.73;18.02;;;15.70;99.90;;;;;;6241537;23;20011;-82
2021/06/15 03:16:41;;;;;;;30.52;17.80;;;15.70;99.90;;;;;;6268057;23;20051;-82
2021/06/15 03:19:10;;;;;;;26.67;17.13;;;15.70;99.90;;;;;;6267033;23;20013;-82
2021/06/15 03:21:43;;;;;;;33.88;18.17;;;15.70;99.90;;;;;;6251412;23;20035;-79
2021/06/15 03:24:16;;;;;;;31.77;17.73;;;15.80;99.90;;;;;;6240971;23;20038;-81
2021/06/15 03:26:50;;;;;;;26.85;16.75;;;15.70;99.90;;;;;;6240551;23;20008;-83
2021/06/15 03:29:20;;;;;;;25.90;16.23;;;15.70;99.90;;;;;;6241737;23;20024;-81
2021/06/15 03:31:51;;;;;;;27.35;16.70;;;15.70;99.90;;;;;;6240885;23;20020;-83
2021/06/15 03:34:21;;;;;;;24.95;16.02;;;15.80;99.90;;;;;;6264555;23;20020;-81
2021/06/15 03:36:52;;;;;;;23.38;13.98;;;15.80;99.90;;;;;;6238712;23;20035;-80
2021/06/15 03:39:20;;;;;;;26.75;14.18;;;15.90;99.90;;;;;;6239304;23;20016;-84
2021/06/15 03:41:50;;;;;;;24.92;13.77;;;16.00;99.90;;;;;;6262955;23;20024;-80
2021/06/15 03:44:20;;;;;;;23.90;15.07;;;16.00;99.90;;;;;;6239048;23;20024;-82
2021/06/15 03:46:49;;;;;;;26.52;14.27;;;16.00;99.90;;;;;;6263867;23;20016;-83
2021/06/15 03:49:20;;;;;;;25.70;14.93;;;16.20;99.90;;;;;;6239014;23;20019;-80
2021/06/15 03:51:51;;;;;;;23.02;13.68;;;16.10;99.90;;;;;;6240174;23;20020;-80
2021/06/15 03:54:20;;;;;;;20.42;13.50;;;16.20;99.90;;;;;;6239153;23;20073;-80
2021/06/15 03:56:50;;;;;;;27.27;15.17;;;16.10;99.90;;;;;;6238395;23;20024;-81
2021/06/15 03:59:21;;;;;;;28.95;15.75;;;16.00;99.90;;;;;;6239340;23;20247;-85
2021/06/15 04:01:51;;;;;;;25.05;14.82;;;15.70;99.90;;;;;;6236861;23;20016;-83
2021/06/15 04:04:19;;;;;;;31.42;15.95;;;15.70;99.90;;;;;;6263578;23;20042;-81
2021/06/15 04:06:54;;;;;;;28.67;15.68;;;15.70;99.90;;;;;;6240460;23;20016;-81
2021/06/15 04:09:26;;;;;;;28.98;15.52;;;15.70;99.90;;;;;;6264190;23;20024;-82
2021/06/15 04:11:55;;;;;;;29.27;15.25;;;15.80;99.90;;;;;;6265983;23;20020;-81
2021/06/15 04:14:22;;;;;;;23.30;14.48;;;15.80;99.90;;;;;;6237999;23;20048;-83
2021/06/15 04:16:50;;;;;;;28.88;14.35;;;15.80;99.90;;;;;;6239394;23;20016;-80
2021/06/15 04:19:23;;;;;;;24.70;15.75;;;15.80;99.90;;;;;;6263756;23;20042;-80
2021/06/15 04:21:53;;;;;;;33.22;15.75;;;15.90;99.90;;;;;;6236625;23;20042;-81
2021/06/15 04:24:25;;;;;;;27.13;14.40;;;16.00;99.90;;;;;;6237478;23;20024;-81
2021/06/15 04:26:53;;;;;;;25.55;13.85;;;17.60;99.90;;;;;;6236807;23;20030;-81
2021/06/15 04:29:21;;;;;;;25.38;14.63;;;16.00;99.90;;;;;;6237019;23;20031;-80
2021/06/15 04:31:52;;;;;;;26.42;15.65;;;15.90;99.90;;;;;;6236839;23;20047;-82
2021/06/15 04:34:25;;;;;;;26.52;14.50;;;16.00;99.90;;;;;;6239818;23;20078;-82
2021/06/15 04:36:58;;;;;;;26.45;14.35;;;16.00;99.90;;;;;;6241106;23;20031;-83
2021/06/15 04:39:29;;;;;;;33.50;15.07;;;16.10;99.90;;;;;;6241071;23;20016;-87
2021/06/15 04:41:59;;;;;;;26.00;15.32;;;16.20;99.90;;;;;;6236180;23;20046;-80
2021/06/15 04:44:28;;;;;;;24.92;14.52;;;16.10;99.90;;;;;;6236433;23;20024;-81
2021/06/15 04:46:58;;;;;;;28.48;15.27;;;16.10;99.90;;;;;;6261026;23;20055;-85
2021/06/15 04:49:29;;;;;;;24.58;14.73;;;16.20;99.90;;;;;;6236482;23;20242;-81
2021/06/15 04:51:59;;;;;;;28.45;15.60;;;16.30;99.90;;;;;;6259998;23;20020;-82
2021/06/15 04:54:31;;;;;;;24.27;15.13;;;16.30;99.90;;;;;;6261079;23;20020;-84
2021/06/15 04:57:00;;;;;;;25.42;14.70;;;16.40;99.90;;;;;;6235038;23;20311;-83
2021/06/15 04:59:29;;;;;;;23.58;15.10;;;16.50;99.90;;;;;;6235244;23;20039;-84
2021/06/15 05:01:57;;;;;;;22.52;14.07;;;16.40;99.90;;;;;;6235270;23;20024;-86
2021/06/15 05:04:25;;;;;;;28.23;15.07;;;18.30;99.90;;;;;;6236623;23;20019;-86
2021/06/15 05:06:52;;;;;;;24.95;14.73;;;16.40;99.90;;;;;;6235814;23;20016;-83
2021/06/15 05:09:22;;;;;;;25.48;15.05;;;16.50;99.90;;;;;;6235951;23;20038;-83
2021/06/15 05:11:51;;;;;;;31.38;15.48;;;16.50;99.90;;;;;;6233450;23;20016;-81
2021/06/15 05:14:19;;;;;;;24.05;13.63;;;17.20;99.90;;;;;;6234011;23;20020;-83
2021/06/15 05:16:46;;;;;;;27.45;15.40;;;17.40;99.90;;;;;;6231540;23;20023;-83
2021/06/15 05:19:14;;;;;;;26.75;15.10;;;16.60;99.90;;;;;;6232675;23;20024;-81
2021/06/15 05:21:48;;;;;;;21.25;14.60;;;16.60;99.90;;;;;;6235607;23;20094;-85
2021/06/15 05:24:31;;;;;;;28.88;15.20;;;16.60;99.90;;;;;;6239113;23;20028;-84
2021/06/15 05:26:59;;;;;;;24.00;15.10;;;16.50;99.90;;;;;;6240550;23;20430;-78
2021/06/15 05:29:26;;;;;;;21.50;13.23;;;16.30;99.90;;;;;;6239093;23;20020;-84
2021/06/15 05:31:52;;;;;;;25.48;13.55;;;16.20;99.90;;;;;;6243758;23;20020;-80
2021/06/15 05:34:20;;;;;;;23.00;13.20;;;16.10;99.90;;;;;;6242800;23;20020;-83
2021/06/15 05:36:47;;;;;;;25.02;13.30;;;16.00;99.90;;;;;;6244389;23;20051;-84
2021/06/15 05:39:14;;;;;;;26.10;12.85;;;16.10;99.90;;;;;;6267913;23;20020;-80
2021/06/15 05:41:42;;;;;;;26.45;13.07;;;16.20;99.90;;;;;;6242682;23;20020;-81
2021/06/15 05:44:09;;;;;;;23.88;12.10;;;16.20;99.90;;;;;;6246175;23;20004;-82
2021/06/15 05:46:36;;;;;;;20.65;12.77;;;16.10;99.90;;;;;;6245367;22;20002;-81
2021/06/15 05:49:03;;;;;;;18.80;11.20;;;16.00;99.90;;;;;;6245011;23;20016;-82
2021/06/15 05:51:31;;;;;;;19.35;12.00;;;16.30;99.90;;;;;;6243675;23;20020;-82
2021/06/15 05:54:02;;;;;;;22.98;12.27;;;16.20;99.90;;;;;;6243002;23;20004;-80
2021/06/15 05:56:29;;;;;;;26.50;12.63;;;16.20;99.90;;;;;;6252873;23;20051;-84
2021/06/15 05:58:57;;;;;;;23.55;13.40;;;16.20;99.90;;;;;;6267592;23;20016;-81
2021/06/15 06:01:26;;;;;;;22.92;12.65;;;16.20;99.90;;;;;;6244182;23;20042;-85
2021/06/15 06:04:03;;;;;;;27.42;12.63;;;16.20;99.90;;;;;;6240972;23;20016;-79
2021/06/15 06:09:15;;;;;;;23.73;11.70;;;16.50;99.90;;;;;;6265386;23;20039;-84
2021/06/15 06:11:43;;;;;;;18.83;11.50;;;16.70;99.90;;;;;;6239504;23;20027;-83
2021/06/15 06:14:11;;;;;;;23.40;12.23;;;16.60;99.90;;;;;;6238263;23;20047;-83
2021/06/15 06:16:42;;;;;;;18.52;10.90;;;16.60;99.90;;;;;;6240581;23;20020;-82
2021/06/15 06:19:14;;;;;;;20.92;10.98;;;16.50;99.90;;;;;;6237440;23;20016;-82
2021/06/15 06:21:43;;;;;;;25.77;10.13;;;16.60;99.90;;;;;;6239681;23;20321;-81
2021/06/15 06:24:12;;;;;;;23.27;10.10;;;16.60;99.90;;;;;;6240114;23;20034;-84
2021/06/15 06:26:39;;;;;;;20.70;10.23;;;16.70;99.90;;;;;;6240831;23;20024;-84
2021/06/15 06:29:06;;;;;;;18.42;10.02;;;16.60;99.90;;;;;;6265085;23;20020;-84
2021/06/15 06:31:35;;;;;;;13.27;7.50;;;16.60;99.90;;;;;;6241534;23;20290;-83
2021/06/15 06:34:02;;;;;;;15.10;6.78;;;16.50;99.90;;;;;;6240095;23;20016;-82
2021/06/15 06:36:29;;;;;;;15.35;7.07;;;16.80;99.90;;;;;;6240229;23;20206;-85
2021/06/15 06:39:00;;;;;;;11.68;6.40;;;16.90;99.90;;;;;;6240124;23;20012;-81
2021/06/15 06:41:27;;;;;;;13.27;6.10;;;16.90;99.90;;;;;;6263833;23;20501;-84
2021/06/15 06:43:54;;;;;;;16.42;7.30;;;17.10;99.90;;;;;;6236252;23;20039;-85
2021/06/15 06:46:21;;;;;;;19.15;7.28;;;17.00;99.90;;;;;;6242082;23;20054;-82
2021/06/15 06:48:49;;;;;;;12.82;6.80;;;16.80;99.90;;;;;;6244269;23;20037;-84
2021/06/15 06:51:17;;;;;;;17.08;7.85;;;16.80;99.90;;;;;;6242688;23;20024;-80
2021/06/15 06:53:43;;;;;;;14.15;7.32;;;16.80;99.90;;;;;;6240226;23;20020;-81
2021/06/15 06:56:11;;;;;;;14.77;7.93;;;16.90;99.90;;;;;;6266426;23;20024;-82
2021/06/15 06:58:38;;;;;;;16.38;7.85;;;16.90;99.90;;;;;;6242987;23;20020;-81
2021/06/15 07:01:04;;;;;;;18.10;8.57;;;16.80;99.90;;;;;;6243942;23;20004;-82
2021/06/15 07:03:31;;;;;;;19.60;7.68;;;16.90;99.90;;;;;;6240209;23;20015;-85
2021/06/15 07:06:00;;;;;;;13.60;6.93;;;17.00;99.90;;;;;;6239154;23;20439;-84
2021/06/15 07:08:26;;;;;;;14.77;8.40;;;17.20;99.90;;;;;;6238519;23;20059;-84
2021/06/15 07:10:53;;;;;;;14.70;7.88;;;17.30;99.90;;;;;;6265106;23;20016;-86
2021/06/15 07:13:20;;;;;;;16.05;7.97;;;17.20;99.90;;;;;;6260361;23;20016;-83
2021/06/15 07:15:47;;;;;;;13.95;7.57;;;17.40;99.90;;;;;;6235492;23;20050;-84
2021/06/15 07:18:14;;;;;;;16.42;7.97;;;17.20;99.90;;;;;;6234220;23;20074;-84
2021/06/15 07:20:41;;;;;;;13.02;7.18;;;17.40;99.90;;;;;;6232490;23;20027;-84
2021/06/15 07:23:09;;;;;;;15.88;7.32;;;17.50;99.90;;;;;;6232165;23;20023;-85
2021/06/15 07:25:37;;;;;;;16.55;7.80;;;17.60;99.90;;;;;;6232733;23;20020;-85
2021/06/15 07:28:04;;;;;;;14.23;7.57;;;17.40;99.90;;;;;;6233213;23;20020;-83
2021/06/15 07:30:31;;;;;;;12.93;7.10;;;17.60;99.90;;;;;;6229145;23;20077;-81
2021/06/15 07:32:58;;;;;;;12.77;6.63;;;17.80;99.90;;;;;;6238060;22;20107;-81
2021/06/15 07:35:27;;;;;;;16.98;7.28;;;18.10;99.90;;;;;;6270742;22;20079;-82
2021/06/15 07:37:55;;;;;;;13.52;6.22;;;17.90;99.90;;;;;;6271912;22;20015;-81
2021/06/15 07:40:24;;;;;;;11.52;5.88;;;18.00;99.90;;;;;;6244525;22;20449;-82
2021/06/15 07:42:52;;;;;;;14.20;6.67;;;18.10;99.90;;;;;;6255276;22;20206;-81
2021/06/15 07:45:19;;;;;;;13.98;6.03;;;18.10;99.90;;;;;;6270616;22;20714;-81
2021/06/15 07:47:45;;;;;;;13.57;7.18;;;18.10;99.90;;;;;;6271175;22;20012;-81
2021/06/15 07:50:14;;;;;;;14.15;6.30;;;18.00;99.90;;;;;;6245570;22;20349;-81
2021/06/15 07:52:42;;;;;;;15.98;6.60;;;18.00;99.90;;;;;;6272248;22;20020;-81
2021/06/15 07:55:10;;;;;;;14.02;6.47;;;17.80;99.90;;;;;;6271135;22;20582;-81
2021/06/15 07:57:40;;;;;;;12.25;6.82;;;17.50;99.90;;;;;;6268831;22;20022;-81
2021/06/15 08:00:09;;;;;;;16.27;7.00;;;17.30;99.90;;;;;;6270968;22;20012;-81
2021/06/15 08:02:36;;;;;;;14.55;6.82;;;17.30;99.90;;;;;;6271323;22;20449;-82
2021/06/15 08:05:04;;;;;;;17.80;7.82;;;17.30;99.90;;;;;;6271269;22;20019;-81
2021/06/15 08:07:30;;;;;;;16.75;7.53;;;17.20;99.90;;;;;;6271319;22;20046;-81
2021/06/15 08:09:57;;;;;;;14.85;7.88;;;17.10;99.90;;;;;;6271173;22;20012;-81
2021/06/15 08:12:24;;;;;;;14.18;7.55;;;16.90;99.90;;;;;;6270474;22;20020;-81
2021/06/15 08:14:57;;;;;;;12.40;6.95;;;17.00;99.90;;;;;;6270623;22;20019;-81
2021/06/15 08:17:24;;;;;;;18.42;7.65;;;17.10;99.90;;;;;;6271376;22;20416;-81
2021/06/15 08:19:51;;;;;;;13.25;6.93;;;17.30;99.90;;;;;;6270028;22;20019;-82
2021/06/15 08:22:18;;;;;;;13.30;5.75;;;17.50;99.90;;;;;;6270646;22;20023;-81
2021/06/15 08:24:44;;;;;;;10.10;4.50;;;17.50;99.90;;;;;;6273012;22;20023;-82
2021/06/15 08:27:11;;;;;;;8.88;5.32;;;17.50;99.90;;;;;;6270490;22;20015;-81
2021/06/15 08:29:38;;;;;;;12.68;6.20;;;17.60;99.90;;;;;;6269761;22;20057;-81
2021/06/15 08:32:07;;;;;;;11.20;5.70;;;17.60;99.90;;;;;;6269365;22;20070;-82
2021/06/15 08:34:35;;;;;;;10.40;5.65;;;17.90;99.90;;;;;;6271558;22;20020;-82
2021/06/15 08:37:02;;;;;;;10.55;5.80;;;18.00;99.90;;;;;;6270798;22;20081;-82
2021/06/15 08:39:29;;;;;;;8.68;5.68;;;18.00;99.90;;;;;;6270401;22;20024;-81
2021/06/15 08:41:55;;;;;;;17.85;7.10;;;18.10;99.90;;;;;;6270585;22;20066;-82
2021/06/15 08:44:22;;;;;;;14.18;5.90;;;18.00;99.90;;;;;;6282350;22;20034;-81
2021/06/15 08:46:49;;;;;;;14.65;6.78;;;18.30;99.90;;;;;;6245456;22;20020;-81
2021/06/15 08:49:17;;;;;;;15.75;6.75;;;18.30;99.90;;;;;;6272131;22;20466;-81
2021/06/15 08:51:45;;;;;;;11.15;5.70;;;18.30;99.90;;;;;;6281363;22;20077;-81
2021/06/15 08:54:17;;;;;;;12.60;6.53;;;18.40;99.90;;;;;;6280609;22;20103;-82
2021/06/15 08:56:44;;;;;;;13.35;7.28;;;18.20;99.90;;;;;;6271119;22;20089;-81
2021/06/15 08:59:19;;;;;;;12.25;6.78;;;18.20;99.90;;;;;;6282719;22;20015;-82
2021/06/15 09:01:48;;;;;;;15.05;7.13;;;18.20;99.90;;;;;;6273176;22;20016;-80
2021/06/15 09:04:17;;;;;;;12.82;6.32;;;18.30;99.90;;;;;;6271243;22;20066;-82
2021/06/15 09:06:45;;;;;;;14.13;6.00;;;18.50;99.90;;;;;;6255018;22;20023;-81
2021/06/15 09:09:12;;;;;;;11.98;5.50;;;18.60;99.90;;;;;;6269872;22;20405;-81
2021/06/15 09:11:51;;;;;;;12.68;6.03;;;18.70;99.90;;;;;;6271930;22;20019;-82
2021/06/15 09:14:36;;;;;;;11.05;6.20;;;18.80;99.90;;;;;;6270813;22;20436;-82
2021/06/15 09:17:03;;;;;;;13.50;5.38;;;18.80;99.90;;;;;;6271711;22;20015;-81
2021/06/15 09:19:37;;;;;;;11.75;5.40;;;19.10;99.90;;;;;;6267491;22;20031;-81
2021/06/15 09:22:04;;;;;;;10.77;5.38;;;19.10;99.90;;;;;;6279009;22;20019;-82
2021/06/15 09:24:31;;;;;;;12.07;4.65;;;18.90;99.90;;;;;;6271262;22;20016;-81
2021/06/15 09:27:02;;;;;;;10.23;5.32;;;18.60;99.90;;;;;;6270505;22;20506;-81
2021/06/15 09:29:44;;;;;;;7.90;4.00;;;18.70;99.90;;;;;;6271319;22;20081;-81
2021/06/15 09:32:16;;;;;;;9.43;4.80;;;18.70;99.90;;;;;;6271373;22;20081;-81
2021/06/15 09:34:58;;;;;;;11.70;4.00;;;18.80;99.90;;;;;;6271803;22;20020;-81
2021/06/15 09:37:34;;;;;;;9.10;4.03;;;19.00;99.90;;;;;;6268807;22;20024;-82
2021/06/15 09:40:09;;;;;;;12.13;4.13;;;19.00;99.90;;;;;;6270373;22;20023;-81
2021/06/15 09:42:55;;;;;;;8.90;3.97;;;18.90;99.90;;;;;;6270789;22;20012;-81
2021/06/15 09:45:24;;;;;;;8.35;3.72;;;18.70;99.90;;;;;;6270015;22;20074;-81
2021/06/15 09:47:52;;;;;;;9.10;3.47;;;18.70;99.90;;;;;;6272054;22;20011;-82
2021/06/15 09:50:22;;;;;;;14.70;3.90;;;18.90;99.90;;;;;;6270521;22;20332;-81
2021/06/15 09:52:49;;;;;;;15.35;4.00;;;19.00;99.90;;;;;;6279364;22;20391;-82
2021/06/15 09:55:18;;;;;;;10.05;3.55;;;19.00;99.90;;;;;;6280294;22;20015;-81
2021/06/15 09:57:48;;;;;;;10.93;3.92;;;19.10;99.90;;;;;;6269728;22;20023;-82
2021/06/15 10:00:16;;;;;;;9.05;3.60;;;19.00;99.90;;;;;;6270726;22;20023;-81
2021/06/15 10:02:49;;;;;;;11.52;3.55;;;19.10;99.90;;;;;;6272043;22;20015;-82
2021/06/15 10:05:27;;;;;;;8.13;3.13;;;18.90;99.90;;;;;;6276843;22;20024;-81
2021/06/15 10:07:57;;;;;;;9.32;3.30;;;18.70;99.90;;;;;;6270377;22;20075;-81
2021/06/15 10:10:27;;;;;;;10.43;3.22;;;18.60;99.90;;;;;;6272501;22;20011;-82
2021/06/15 10:12:54;;;;;;;10.63;3.40;;;18.60;99.90;;;;;;6272459;22;20462;-82
2021/06/15 10:15:23;;;;;;;9.45;3.67;;;18.70;99.90;;;;;;6272191;22;20019;-81
2021/06/15 10:17:50;;;;;;;8.77;3.25;;;18.70;99.90;;;;;;6272272;22;20019;-82
2021/06/15 10:20:19;;;;;;;9.70;3.03;;;19.00;99.90;;;;;;6273714;22;20366;-82
2021/06/15 10:22:49;;;;;;;7.07;2.80;;;19.30;99.90;;;;;;6270284;22;20016;-82
2021/06/15 10:25:17;;;;;;;;;;;19.30;99.90;;;;;;6270497;22;20073;-81
2021/06/15 10:27:45;;;;;;;6.65;3.08;;;19.00;99.90;;;;;;6296544;22;19915;-81
2021/06/15 10:30:13;;;;;;;7.85;3.10;;;18.80;99.90;;;;;;6271475;22;20448;-81
2021/06/15 10:32:52;;;;;;;10.33;3.70;;;18.90;99.90;;;;;;6273052;22;20016;-82
2021/06/15 10:35:43;;;;;;;8.25;3.20;;;18.90;99.90;;;;;;6271211;22;20020;-81
2021/06/15 10:38:16;;;;;;;6.88;3.50;;;18.90;99.90;;;;;;6273153;22;20015;-82
2021/06/15 10:40:48;;;;;;;8.02;3.50;;;18.90;99.90;;;;;;6273364;22;20065;-81
2021/06/15 10:43:22;;;;;;;10.45;3.40;;;19.80;99.90;;;;;;6273578;22;20470;-81
2021/06/15 10:45:52;;;;;;;10.57;3.50;;;19.10;99.90;;;;;;6271229;22;20024;-82
2021/06/15 10:48:29;;;;;;;14.90;3.13;;;19.10;99.90;;;;;;6271426;22;20503;-81
2021/06/15 10:50:58;;;;;;;8.45;3.35;;;19.30;99.90;;;;;;6273590;22;20398;-81
2021/06/15 10:53:41;;;;;;;7.10;3.22;;;19.30;99.90;;;;;;6271696;22;20019;-82
2021/06/15 10:56:10;;;;;;;8.10;2.78;;;19.30;99.90;;;;;;6271801;22;20016;-81
2021/06/15 10:58:58;;;;;;;11.77;3.00;;;19.30;99.90;;;;;;6270061;22;20020;-82
2021/06/15 11:01:27;;;;;;;7.78;3.03;;;19.30;99.90;;;;;;6273444;22;20019;-81
2021/06/15 11:03:56;;;;;;;6.53;2.80;;;19.30;99.90;;;;;;6281568;22;20012;-81
2021/06/15 11:06:41;;;;;;;8.95;2.92;;;19.30;99.90;;;;;;6281637;22;20270;-82
2021/06/15 11:09:15;;;;;;;6.47;2.85;;;19.50;99.90;;;;;;6276146;22;20094;-82
2021/06/15 11:11:44;;;;;;;5.80;2.50;;;19.60;99.90;;;;;;6271133;22;20016;-82
2021/06/15 11:14:15;;;;;;;9.00;3.00;;;19.60;99.90;;;;;;6272192;22;20065;-82
2021/06/15 11:16:45;;;;;;;6.93;2.70;;;19.70;99.90;;;;;;6272447;22;20444;-82
2021/06/15 11:19:32;;;;;;;7.95;2.30;;;19.80;99.90;;;;;;6266996;22;20444;-82
2021/06/15 11:22:01;;;;;;;7.45;2.30;;;19.80;99.90;;;;;;6268895;22;20706;-83
2021/06/15 11:24:30;;;;;;;4.88;1.88;;;19.80;98.80;;;;;;6273331;22;20375;-82
2021/06/15 11:27:00;;;;;;;7.55;1.88;;;19.90;97.60;;;;;;6245416;22;20525;-81
2021/06/15 11:29:38;;;;;;;8.25;2.10;;;19.90;98.40;;;;;;6275123;22;20011;-82
2021/06/15 11:32:23;;;;;;;7.35;2.20;;;20.00;98.90;;;;;;6274534;22;20016;-82
2021/06/15 11:35:16;;;;;;;7.45;1.95;;;20.00;97.00;;;;;;6273369;22;20325;-84
2021/06/15 11:37:46;;;;;;;4.95;1.30;;;20.10;98.10;;;;;;6278155;22;20423;-84
2021/06/15 11:40:22;;;;;;;4.20;1.45;;;20.20;94.90;;;;;;6250191;22;20012;-83
2021/06/15 11:42:51;;;;;;;4.82;1.30;;;20.20;96.00;;;;;;6273332;22;20026;-81
2021/06/15 11:45:30;;;;;;;5.97;1.60;;;20.20;96.30;;;;;;6271256;22;20391;-82
2021/06/15 11:48:19;;;;;;;7.50;2.10;;;20.30;95.20;;;;;;6272297;22;20023;-82
2021/06/15 11:50:47;;;;;;;6.78;1.88;;;20.40;95.60;;;;;;6269823;22;20263;-82
2021/06/15 11:53:16;;;;;;;6.57;1.80;;;20.30;95.40;;;;;;6269719;22;20081;-82
2021/06/15 11:55:46;;;;;;;5.32;1.52;;;20.40;96.30;;;;;;6244454;22;20016;-81
2021/06/15 11:58:15;;;;;;;8.60;1.90;;;20.50;96.10;;;;;;6272422;22;20020;-82
2021/06/15 12:00:44;;;;;;;6.22;1.45;;;20.30;94.90;;;;;;6281531;22;20082;-81
2021/06/15 12:03:14;;;;;;;3.65;1.40;;;20.30;95.10;;;;;;6269224;22;20016;-81
2021/06/15 12:05:42;;;;;;;5.57;1.25;;;20.40;95.20;;;;;;6243642;22;20015;-81
2021/06/15 12:08:10;;;;;;;5.60;1.35;;;20.40;92.80;;;;;;6242517;22;20016;-82
2021/06/15 12:10:37;;;;;;;4.68;1.23;;;20.50;93.10;;;;;;6279242;22;20085;-81
2021/06/15 12:13:11;;;;;;;6.25;1.30;;;20.50;93.50;;;;;;6271523;22;20016;-81
2021/06/15 12:15:47;;;;;;;5.07;1.33;;;20.50;93.20;;;;;;6272399;22;20026;-82
2021/06/15 12:18:33;;;;;;;4.78;1.50;;;20.60;94.20;;;;;;6278460;22;20020;-81
2021/06/15 12:21:02;;;;;;;4.40;1.50;;;20.80;94.60;;;;;;6281216;22;20012;-82
2021/06/15 12:23:36;;;;;;;5.15;1.38;;;20.80;93.50;;;;;;6271477;22;20034;-82
2021/06/15 12:26:14;;;;;;;5.65;1.60;;;20.80;93.20;;;;;;6272449;22;20346;-82
2021/06/15 12:28:45;;;;;;;6.10;1.40;;;21.00;95.20;;;;;;6269302;22;20070;-82
2021/06/15 12:31:18;;;;;;;5.68;1.35;;;21.10;94.90;;;;;;6273474;22;20035;-82
2021/06/15 12:33:47;;;;;;;9.15;1.58;;;21.20;93.70;;;;;;6270567;22;20016;-81
2021/06/15 12:36:15;;;;;;;5.80;1.27;;;21.20;92.40;;;;;;6271490;22;20018;-82
2021/06/15 12:38:43;;;;;;;6.32;1.63;;;21.20;93.40;;;;;;6270031;22;20758;-82
2021/06/15 12:41:12;;;;;;;4.07;1.20;;;21.30;92.90;;;;;;6271836;22;20467;-83
2021/06/15 12:43:40;;;;;;;2.72;1.08;;;21.40;92.30;;;;;;6285282;22;20073;-82
2021/06/15 12:46:29;;;;;;;7.35;1.50;;;21.50;92.80;;;;;;6272943;22;20411;-84
2021/06/15 12:48:59;;;;;;;4.95;1.52;;;21.50;93.10;;;;;;6272033;22;20432;-82
2021/06/15 12:51:28;;;;;;;3.85;1.42;;;21.60;91.50;;;;;;6270610;22;20015;-83